createdAt,value
2023-07-09T00:01:55.251Z,26.90
2023-07-09T00:04:23.298Z,26.90
2023-07-09T00:06:50.541Z,26.90
2023-07-09T00:09:20.844Z,26.90
2023-07-09T00:19:18.441Z,26.90
2023-07-09T00:31:42.069Z,26.70
2023-07-09T00:34:14.307Z,26.70
2023-07-09T00:36:45.180Z,26.60
2023-07-09T00:39:23.697Z,26.60
2023-07-09T00:41:51.966Z,26.60
2023-07-09T00:44:21.931Z,26.60
2023-07-09T00:46:48.662Z,26.50
2023-07-09T00:49:32.418Z,26.50
2023-07-09T00:52:03.516Z,26.50
2023-07-09T00:54:38.105Z,26.50
2023-07-09T00:57:13.949Z,26.40
2023-07-09T00:59:41.591Z,26.50
2023-07-09T01:02:09.619Z,26.40
2023-07-09T01:04:37.341Z,26.40
2023-07-09T01:07:04.842Z,26.30
2023-07-09T01:09:31.807Z,26.30
2023-07-09T01:12:02.082Z,26.40
2023-07-09T01:14:28.879Z,26.30
2023-07-09T01:17:04.472Z,26.30
2023-07-09T01:19:41.488Z,26.30
2023-07-09T01:22:08.220Z,26.30
2023-07-09T01:25:04.108Z,26.30
2023-07-09T01:27:38.645Z,26.20
2023-07-09T01:30:15.923Z,26.20
2023-07-09T01:32:46.921Z,26.20
2023-07-09T01:35:16.108Z,26.20
2023-07-09T01:37:44.659Z,26.20
2023-07-09T01:40:25.014Z,26.20
2023-07-09T01:43:01.815Z,26.10
2023-07-09T01:45:29.525Z,26.10
2023-07-09T01:47:57.012Z,26.10
2023-07-09T01:50:25.327Z,26.10
2023-07-09T01:52:52.747Z,26.10
2023-07-09T01:55:20.283Z,26.00
2023-07-09T01:57:47.129Z,26.00
2023-07-09T02:00:16.794Z,26.00
2023-07-09T02:02:46.640Z,25.90
2023-07-09T02:05:16.264Z,25.90
2023-07-09T02:07:43.230Z,25.90
2023-07-09T02:10:11.044Z,25.90
2023-07-09T02:12:38.822Z,25.90
2023-07-09T02:15:06.222Z,25.90
2023-07-09T02:17:33.002Z,25.80
2023-07-09T02:29:50.327Z,25.80
2023-07-09T02:32:23.556Z,25.70
2023-07-09T02:34:53.874Z,25.70
2023-07-09T02:37:26.222Z,25.70
2023-07-09T02:39:53.407Z,25.70
2023-07-09T02:42:21.681Z,25.70
2023-07-09T02:44:48.332Z,25.60
2023-07-09T02:47:15.713Z,25.60
2023-07-09T02:49:42.712Z,25.60
2023-07-09T02:52:09.487Z,25.60
2023-07-09T02:54:36.611Z,25.60
2023-07-09T03:11:49.928Z,25.50
2023-07-09T03:14:17.577Z,25.50
2023-07-09T03:16:44.848Z,25.40
2023-07-09T03:19:11.834Z,25.40
2023-07-09T03:21:39.092Z,25.40
2023-07-09T03:24:06.509Z,25.40
2023-07-09T03:26:33.342Z,25.40
2023-07-09T03:29:00.104Z,25.40
2023-07-09T03:31:26.880Z,25.30
2023-07-09T03:33:53.744Z,25.30
2023-07-09T03:36:21.266Z,25.30
2023-07-09T03:38:48.746Z,25.30
2023-07-09T03:41:15.894Z,25.30
2023-07-09T03:43:42.597Z,25.30
2023-07-09T03:46:09.402Z,25.30
2023-07-09T03:48:36.222Z,25.20
2023-07-09T03:51:03.069Z,25.20
2023-07-09T04:03:22.823Z,25.20
2023-07-09T05:04:52.501Z,25.20
2023-07-09T05:07:19.563Z,25.00
2023-07-09T05:09:46.365Z,25.00
2023-07-09T05:12:13.225Z,25.00
2023-07-09T05:14:40.310Z,25.00
2023-07-09T05:17:07.950Z,25.00
2023-07-09T05:19:34.880Z,25.00
2023-07-09T05:22:01.666Z,25.00
2023-07-09T05:24:28.858Z,25.00
2023-07-09T05:26:56.761Z,25.00
2023-07-09T05:29:24.422Z,25.00
2023-07-09T05:31:51.199Z,25.00
2023-07-09T05:34:18.108Z,25.10
2023-07-09T05:36:45.959Z,25.10
2023-07-09T05:39:12.959Z,25.10
2023-07-09T05:41:39.770Z,25.10
2023-07-09T05:44:06.638Z,25.10
2023-07-09T05:46:37.889Z,25.10
2023-07-09T05:49:06.350Z,25.10
2023-07-09T05:51:33.173Z,25.10
2023-07-09T05:54:00.030Z,25.10
2023-07-09T05:56:26.802Z,25.20
2023-07-09T05:58:53.743Z,25.20
2023-07-09T06:01:21.431Z,25.20
2023-07-09T06:03:48.534Z,25.20
2023-07-09T06:06:15.914Z,25.20
2023-07-09T06:08:42.862Z,25.20
2023-07-09T06:11:09.897Z,25.20
2023-07-09T06:13:36.820Z,25.20
2023-07-09T06:16:04.168Z,25.20
2023-07-09T06:18:31.887Z,25.30
2023-07-09T06:21:03.553Z,25.30
2023-07-09T06:23:31.965Z,25.30
2023-07-09T06:25:59.010Z,25.30
2023-07-09T06:28:30.041Z,25.30
2023-07-09T06:30:57.769Z,25.30
2023-07-09T06:33:26.692Z,25.30
2023-07-09T06:36:03.595Z,25.30
2023-07-09T06:38:30.693Z,25.40
2023-07-09T06:40:58.521Z,25.40
2023-07-09T06:43:25.238Z,25.40
2023-07-09T06:45:57.445Z,25.50
2023-07-09T06:48:25.334Z,25.40
2023-07-09T06:50:54.344Z,25.50
2023-07-09T06:53:21.984Z,25.50
2023-07-09T06:55:50.194Z,25.50
2023-07-09T06:58:17.968Z,25.50
2023-07-09T07:00:44.869Z,25.50
2023-07-09T07:03:12.187Z,25.60
2023-07-09T07:05:43.570Z,25.60
2023-07-09T07:08:12.007Z,25.60
2023-07-09T07:10:38.806Z,25.70
2023-07-09T07:13:10.794Z,25.60
2023-07-09T07:15:39.060Z,25.70
2023-07-09T07:18:06.613Z,25.70
2023-07-09T07:20:33.790Z,25.80
2023-07-09T07:23:00.707Z,25.80
2023-07-09T07:25:27.540Z,25.80
2023-07-09T07:27:54.742Z,25.80
2023-07-09T07:30:23.287Z,25.80
2023-07-09T07:32:52.388Z,25.80
2023-07-09T07:35:20.314Z,25.90
2023-07-09T07:37:47.235Z,25.90
2023-07-09T07:40:15.229Z,26.00
2023-07-09T07:42:41.999Z,26.00
2023-07-09T07:45:10.244Z,26.00
2023-07-09T07:47:38.171Z,26.00
2023-07-09T07:50:05.880Z,26.10
2023-07-09T07:52:33.302Z,26.10
2023-07-09T07:55:00.153Z,26.10
2023-07-09T07:57:27.391Z,26.10
2023-07-09T08:17:14.424Z,26.10
2023-07-09T08:19:52.492Z,26.40
2023-07-09T08:22:21.746Z,26.40
2023-07-09T08:24:50.729Z,26.50
2023-07-09T08:27:18.138Z,26.50
2023-07-09T08:29:45.162Z,26.50
2023-07-09T08:32:12.963Z,26.50
2023-07-09T08:34:52.952Z,26.60
2023-07-09T09:50:34.430Z,26.60
2023-07-09T10:18:31.278Z,27.40
2023-07-09T10:21:36.208Z,27.70
2023-07-09T10:24:35.045Z,27.60
2023-07-09T10:27:44.883Z,27.60
2023-07-09T10:30:57.248Z,27.60
2023-07-09T10:33:35.188Z,27.60
2023-07-09T10:36:04.976Z,27.60
2023-07-09T10:39:06.562Z,27.60
2023-07-09T10:41:36.728Z,27.70
2023-07-09T10:44:13.591Z,27.70
2023-07-09T10:46:44.043Z,27.70
2023-07-09T10:49:14.247Z,27.80
2023-07-09T10:51:53.330Z,27.80
2023-07-09T10:54:41.808Z,27.90
2023-07-09T10:57:27.001Z,27.90
2023-07-09T10:59:57.733Z,28.00
2023-07-09T11:02:33.550Z,28.00
2023-07-09T11:05:03.253Z,28.00
2023-07-09T11:07:51.704Z,28.00
2023-07-09T11:28:36.326Z,28.10
2023-07-09T11:31:09.178Z,28.20
2023-07-09T11:33:48.238Z,28.20
2023-07-09T11:36:26.982Z,28.20
2023-07-09T11:38:55.437Z,28.20
2023-07-09T11:41:42.634Z,28.20
2023-07-09T11:44:23.686Z,28.30
2023-07-09T11:47:04.705Z,28.30
2023-07-09T11:49:52.482Z,28.30
2023-07-09T11:52:34.466Z,28.20
2023-07-09T11:55:43.633Z,28.30
2023-07-09T11:58:17.812Z,28.30
2023-07-09T12:00:52.752Z,28.30
2023-07-09T12:03:26.412Z,28.30
2023-07-09T12:05:55.486Z,28.30
2023-07-09T12:08:35.111Z,28.30
2023-07-09T12:11:02.652Z,28.40
2023-07-09T12:13:29.756Z,28.40
2023-07-09T12:15:56.517Z,28.40
2023-07-09T12:18:23.262Z,28.40
2023-07-09T12:20:54.175Z,28.40
2023-07-09T12:23:30.584Z,28.50
2023-07-09T12:26:01.520Z,28.50
2023-07-09T12:28:29.978Z,28.50
2023-07-09T12:30:58.706Z,28.50
2023-07-09T12:33:28.548Z,28.50
2023-07-09T12:36:01.746Z,28.60
2023-07-09T13:13:25.222Z,28.60
2023-07-09T13:16:02.990Z,29.10
2023-07-09T13:18:30.277Z,29.10
2023-07-09T13:20:57.702Z,29.10
2023-07-09T13:23:27.536Z,29.10
2023-07-09T13:25:56.942Z,29.10
2023-07-09T13:28:27.673Z,29.10
2023-07-09T13:31:00.549Z,29.10
2023-07-09T13:33:28.229Z,29.10
2023-07-09T13:35:55.424Z,29.10
2023-07-09T13:38:24.601Z,29.10
2023-07-09T13:41:01.130Z,29.10
2023-07-09T13:43:34.155Z,29.10
2023-07-09T13:46:04.456Z,29.10
2023-07-09T13:48:33.749Z,29.10
2023-07-09T13:51:00.869Z,29.10
2023-07-09T13:53:32.312Z,29.10
2023-07-09T13:56:00.070Z,29.10
2023-07-09T13:58:27.879Z,29.10
2023-07-09T14:01:10.429Z,29.10
2023-07-09T14:03:37.423Z,29.10
2023-07-09T14:06:04.875Z,29.10
2023-07-09T14:08:31.805Z,29.10
2023-07-09T14:10:58.548Z,29.10
2023-07-09T14:13:26.902Z,29.10
2023-07-09T14:15:54.138Z,29.10
2023-07-09T14:18:23.209Z,29.00
2023-07-09T14:20:51.472Z,29.10
2023-07-09T14:23:19.822Z,29.00
2023-07-09T14:25:46.714Z,29.00
2023-07-09T14:28:18.187Z,29.00
2023-07-09T14:30:46.680Z,29.00
2023-07-09T14:33:16.389Z,29.00
2023-07-09T14:35:44.354Z,29.00
2023-07-09T14:38:17.833Z,28.90
2023-07-09T14:40:46.970Z,28.80
2023-07-09T14:43:16.055Z,28.80
2023-07-09T14:45:43.095Z,28.80
2023-07-09T14:48:16.005Z,28.80
2023-07-09T14:50:43.680Z,28.80
2023-07-09T14:53:27.417Z,28.80
2023-07-09T14:55:57.398Z,28.70
2023-07-09T14:58:25.185Z,28.60
2023-07-09T15:00:52.974Z,28.50
2023-07-09T15:03:25.310Z,28.50
2023-07-09T15:05:52.914Z,28.40
2023-07-09T15:08:23.592Z,28.40
2023-07-09T15:10:53.142Z,28.40
2023-07-09T15:13:32.766Z,28.40
2023-07-09T15:16:02.338Z,28.40
2023-07-09T15:18:29.220Z,28.40
2023-07-09T15:20:58.882Z,28.40
2023-07-09T15:23:26.685Z,28.40
2023-07-09T15:25:53.723Z,28.40
2023-07-09T15:28:20.759Z,28.40
2023-07-09T15:30:47.732Z,28.40
2023-07-09T15:33:20.615Z,28.40
2023-07-09T15:35:49.132Z,28.30
2023-07-09T15:38:19.294Z,28.30
2023-07-09T15:40:48.851Z,28.30
2023-07-09T15:43:16.776Z,28.30
2023-07-09T15:45:46.153Z,28.20
2023-07-09T15:48:33.501Z,28.30
2023-07-09T15:51:02.455Z,28.30
2023-07-09T15:53:29.814Z,28.20
2023-07-09T15:56:02.274Z,28.30
2023-07-09T15:58:36.506Z,28.20
2023-07-09T16:01:03.708Z,28.20
2023-07-09T16:03:30.867Z,28.20
2023-07-09T16:05:57.731Z,28.20
2023-07-09T16:08:24.504Z,28.10
2023-07-09T16:10:51.197Z,28.10
2023-07-09T16:13:25.124Z,28.10
2023-07-09T16:15:52.288Z,28.10
2023-07-09T16:18:19.803Z,28.10
2023-07-09T16:20:47.562Z,28.10
2023-07-09T16:23:19.698Z,28.00
2023-07-09T16:25:48.305Z,28.00
2023-07-09T16:28:16.473Z,28.00
2023-07-09T16:30:43.450Z,28.00
2023-07-09T16:33:11.230Z,28.00
2023-07-09T16:35:37.981Z,28.00
2023-07-09T16:38:04.753Z,28.00
2023-07-09T16:40:33.593Z,27.90
2023-07-09T16:43:02.744Z,27.90
2023-07-09T16:45:31.217Z,27.90
2023-07-09T16:47:58.062Z,27.90
2023-07-09T16:50:26.532Z,27.90
2023-07-09T16:52:54.880Z,27.90
2023-07-09T16:55:27.470Z,27.90
2023-07-09T16:57:57.049Z,27.90
2023-07-09T17:00:34.811Z,27.80
2023-07-09T17:03:07.367Z,27.80
2023-07-09T17:05:34.174Z,27.80
2023-07-09T17:08:00.963Z,27.80
2023-07-09T17:10:27.863Z,27.80
2023-07-09T17:13:02.393Z,27.80
2023-07-09T17:15:34.640Z,27.80
2023-07-09T17:18:01.795Z,27.70
2023-07-09T17:20:31.390Z,27.70
2023-07-09T17:23:00.315Z,27.70
2023-07-09T17:25:33.190Z,27.70
2023-07-09T17:28:01.250Z,27.70
2023-07-09T17:30:29.698Z,27.70
2023-07-09T17:32:57.003Z,27.70
2023-07-09T17:35:24.083Z,27.60
2023-07-09T17:37:53.256Z,27.70
2023-07-09T17:40:43.234Z,27.70
2023-07-09T17:43:21.881Z,27.60
2023-07-09T17:45:50.073Z,27.60
2023-07-09T17:48:22.465Z,27.60
2023-07-09T17:50:49.265Z,27.60
2023-07-09T17:53:19.281Z,27.60
2023-07-09T17:55:47.266Z,27.60
2023-07-09T17:58:16.298Z,27.60
2023-07-09T18:00:43.355Z,27.60
2023-07-09T18:03:12.501Z,27.60
2023-07-09T18:05:39.528Z,27.60
2023-07-09T18:08:08.577Z,27.60
2023-07-09T18:10:37.422Z,27.50
2023-07-09T18:13:06.986Z,27.60
2023-07-09T18:15:34.880Z,27.60
2023-07-09T18:18:01.868Z,27.50
2023-07-09T18:20:28.914Z,27.50
2023-07-09T18:22:55.684Z,27.50
2023-07-09T18:25:23.340Z,27.50
2023-07-09T18:27:57.132Z,27.50
2023-07-09T18:30:26.804Z,27.50
2023-07-09T18:32:57.255Z,27.50
2023-07-09T18:35:29.636Z,27.50
2023-07-09T18:38:01.646Z,27.50
2023-07-09T18:40:30.663Z,27.40
2023-07-09T18:42:57.984Z,27.50
2023-07-09T18:45:26.977Z,27.40
2023-07-09T18:47:54.539Z,27.40
2023-07-09T18:50:30.145Z,27.40
2023-07-09T18:52:59.001Z,27.40
2023-07-09T18:55:28.182Z,27.40
2023-07-09T18:57:55.870Z,27.40
2023-07-09T19:00:24.322Z,27.40
2023-07-09T19:02:55.485Z,27.40
2023-07-09T19:05:25.396Z,27.40
2023-07-09T19:07:54.807Z,27.40
2023-07-09T19:10:25.590Z,27.40
2023-07-09T19:12:55.177Z,27.40
2023-07-09T19:15:23.575Z,27.30
2023-07-09T19:17:52.373Z,27.30
2023-07-09T19:20:22.535Z,27.30
2023-07-09T19:22:50.656Z,27.30
2023-07-09T19:25:21.530Z,27.30
2023-07-09T19:27:49.214Z,27.30
2023-07-09T19:30:17.121Z,27.30
2023-07-09T19:32:48.201Z,27.30
2023-07-09T19:35:20.773Z,27.30
2023-07-09T19:37:48.400Z,27.30
2023-07-09T19:40:22.290Z,27.30
2023-07-09T19:42:50.618Z,27.30
2023-07-09T19:45:26.964Z,27.20
2023-07-09T19:47:56.773Z,27.20
2023-07-09T19:50:32.085Z,27.20
2023-07-09T19:53:01.529Z,27.20
2023-07-09T19:55:36.660Z,27.20
2023-07-09T19:58:03.436Z,27.20
2023-07-09T20:00:30.938Z,27.20
2023-07-09T20:02:58.047Z,27.20
2023-07-09T20:05:29.051Z,27.20
2023-07-09T20:07:58.729Z,27.20
2023-07-09T20:10:26.390Z,27.20
2023-07-09T20:12:55.558Z,27.20
2023-07-09T20:15:27.723Z,27.20
2023-07-09T20:17:57.325Z,27.20
2023-07-09T20:20:25.961Z,27.10
2023-07-09T20:22:53.466Z,27.10
2023-07-09T20:25:23.100Z,27.10
2023-07-09T20:27:51.196Z,27.10
2023-07-09T20:30:18.375Z,27.10
2023-07-09T20:32:46.888Z,27.10
2023-07-09T20:35:15.232Z,27.10
2023-07-09T20:37:42.054Z,27.00
2023-07-09T20:40:14.271Z,27.00
2023-07-09T20:42:41.597Z,26.90
2023-07-09T20:45:24.162Z,26.90
2023-07-09T20:47:53.936Z,26.90
2023-07-09T20:50:28.047Z,26.90
2023-07-09T20:52:54.734Z,26.80
2023-07-09T20:55:21.483Z,26.80
2023-07-09T20:57:49.967Z,26.70
2023-07-09T21:00:21.651Z,26.70
2023-07-09T21:05:18.790Z,26.70
2023-07-09T21:07:48.322Z,26.70
2023-07-09T21:10:17.444Z,26.60
2023-07-09T21:12:44.264Z,26.60
2023-07-09T21:15:11.274Z,26.50
2023-07-09T21:17:38.573Z,26.50
2023-07-09T21:20:17.749Z,26.50
2023-07-09T21:22:45.158Z,26.40
2023-07-09T21:25:22.088Z,26.40
2023-07-09T21:27:49.668Z,26.40
2023-07-09T21:30:17.977Z,26.40
2023-07-09T21:32:46.688Z,26.30
2023-07-09T21:35:31.909Z,26.20
2023-07-09T21:37:59.062Z,26.30
2023-07-09T21:40:35.115Z,26.20
2023-07-09T21:43:03.564Z,26.20
2023-07-09T21:45:37.629Z,26.10
2023-07-09T21:48:10.716Z,26.10
2023-07-09T21:50:37.538Z,26.10
2023-07-09T21:53:04.563Z,26.10
2023-07-09T21:55:31.379Z,26.10
2023-07-09T21:57:58.137Z,26.10
2023-07-09T22:00:28.156Z,26.10
2023-07-09T22:02:56.184Z,26.00
2023-07-09T22:05:26.290Z,26.00
2023-07-09T22:07:54.796Z,26.00
2023-07-09T22:10:28.990Z,26.00
2023-07-09T22:12:57.456Z,26.00
2023-07-09T22:15:27.661Z,25.90
2023-07-09T22:17:55.295Z,25.90
2023-07-09T22:20:26.258Z,25.90
2023-07-09T22:22:57.136Z,25.80
2023-07-09T22:25:26.270Z,25.80
2023-07-09T22:27:53.725Z,25.80
2023-07-09T22:30:21.517Z,25.80
2023-07-09T22:32:55.128Z,25.80
2023-07-09T22:35:26.471Z,25.80
2023-07-09T22:37:53.742Z,25.70
2023-07-09T22:40:26.450Z,25.70
2023-07-09T22:42:54.917Z,25.70
2023-07-09T22:45:25.813Z,25.70
2023-07-09T22:47:56.967Z,25.60
2023-07-09T22:50:42.365Z,25.60
2023-07-09T22:53:17.393Z,25.60
2023-07-09T22:55:46.547Z,25.60
2023-07-09T22:58:15.453Z,25.60
2023-07-09T23:00:47.957Z,25.50
2023-07-09T23:03:21.453Z,25.50
2023-07-09T23:05:49.603Z,25.50
2023-07-09T23:20:48.715Z,25.50
2023-07-09T23:23:15.687Z,25.30
2023-07-09T23:25:43.868Z,25.30
2023-07-09T23:28:12.141Z,25.30
2023-07-09T23:30:38.958Z,25.20
2023-07-09T23:33:38.819Z,25.20
2023-07-09T23:36:11.532Z,25.20
2023-07-09T23:56:18.080Z,25.20
2023-07-09T23:58:45.990Z,25.00
